sensor_id;sensor_type;location;lat;lon;timestamp;P1;durP1;ratioP1;P2;durP2;ratioP2
74108;SDS011;62466;47.566;7.786;2023-02-28T00:01:13;6.18;;;5.57;;
74108;SDS011;62466;47.566;7.786;2023-02-28T00:03:39;6.55;;;5.43;;
74108;SDS011;62466;47.566;7.786;2023-02-28T00:06:05;6.20;;;5.65;;
74108;SDS011;62466;47.566;7.786;2023-02-28T00:08:32;6.82;;;5.78;;
74108;SDS011;62466;47.566;7.786;2023-02-28T00:11:02;6.63;;;5.88;;
74108;SDS011;62466;47.566;7.786;2023-02-28T00:13:31;6.90;;;6.10;;
74108;SDS011;62466;47.566;7.786;2023-02-28T00:16:02;6.88;;;5.65;;
74108;SDS011;62466;47.566;7.786;2023-02-28T00:18:33;6.65;;;5.75;;
74108;SDS011;62466;47.566;7.786;2023-02-28T00:20:58;6.25;;;5.75;;
74108;SDS011;62466;47.566;7.786;2023-02-28T00:23:25;6.20;;;5.65;;
74108;SDS011;62466;47.566;7.786;2023-02-28T00:25:51;6.93;;;5.65;;
74108;SDS011;62466;47.566;7.786;2023-02-28T00:28:17;7.75;;;5.63;;
74108;SDS011;62466;47.566;7.786;2023-02-28T00:30:43;6.10;;;5.53;;
74108;SDS011;62466;47.566;7.786;2023-02-28T00:33:09;10.82;;;6.05;;
74108;SDS011;62466;47.566;7.786;2023-02-28T00:35:35;5.80;;;5.40;;
74108;SDS011;62466;47.566;7.786;2023-02-28T00:38:00;6.40;;;5.80;;
74108;SDS011;62466;47.566;7.786;2023-02-28T00:40:26;6.53;;;5.93;;
74108;SDS011;62466;47.566;7.786;2023-02-28T00:42:52;7.05;;;6.25;;
74108;SDS011;62466;47.566;7.786;2023-02-28T00:45:18;5.90;;;5.32;;
74108;SDS011;62466;47.566;7.786;2023-02-28T00:47:44;7.85;;;6.53;;
74108;SDS011;62466;47.566;7.786;2023-02-28T00:50:11;6.72;;;6.13;;
74108;SDS011;62466;47.566;7.786;2023-02-28T00:52:37;8.02;;;7.00;;
74108;SDS011;62466;47.566;7.786;2023-02-28T00:55:03;6.75;;;6.15;;
74108;SDS011;62466;47.566;7.786;2023-02-28T00:57:29;8.00;;;6.28;;
74108;SDS011;62466;47.566;7.786;2023-02-28T00:59:55;6.38;;;5.75;;
74108;SDS011;62466;47.566;7.786;2023-02-28T01:02:22;8.88;;;6.70;;
74108;SDS011;62466;47.566;7.786;2023-02-28T01:04:48;6.60;;;5.97;;
74108;SDS011;62466;47.566;7.786;2023-02-28T01:07:14;7.00;;;6.22;;
74108;SDS011;62466;47.566;7.786;2023-02-28T01:09:40;8.35;;;6.05;;
74108;SDS011;62466;47.566;7.786;2023-02-28T01:12:07;9.50;;;6.65;;
74108;SDS011;62466;47.566;7.786;2023-02-28T01:14:33;6.38;;;5.82;;
74108;SDS011;62466;47.566;7.786;2023-02-28T01:16:59;7.18;;;6.47;;
74108;SDS011;62466;47.566;7.786;2023-02-28T01:19:25;8.20;;;6.53;;
74108;SDS011;62466;47.566;7.786;2023-02-28T01:21:51;6.95;;;6.20;;
74108;SDS011;62466;47.566;7.786;2023-02-28T01:24:17;7.28;;;6.63;;
74108;SDS011;62466;47.566;7.786;2023-02-28T01:26:43;7.53;;;6.32;;
74108;SDS011;62466;47.566;7.786;2023-02-28T01:29:09;7.22;;;6.47;;
74108;SDS011;62466;47.566;7.786;2023-02-28T01:31:35;8.40;;;6.10;;
74108;SDS011;62466;47.566;7.786;2023-02-28T01:34:01;9.27;;;6.95;;
74108;SDS011;62466;47.566;7.786;2023-02-28T01:36:27;7.63;;;6.88;;
74108;SDS011;62466;47.566;7.786;2023-02-28T01:38:54;8.55;;;7.03;;
74108;SDS011;62466;47.566;7.786;2023-02-28T01:41:22;9.88;;;7.30;;
74108;SDS011;62466;47.566;7.786;2023-02-28T01:46:15;8.93;;;7.47;;
74108;SDS011;62466;47.566;7.786;2023-02-28T01:48:50;7.78;;;7.03;;
74108;SDS011;62466;47.566;7.786;2023-02-28T01:51:20;6.70;;;6.20;;
74108;SDS011;62466;47.566;7.786;2023-02-28T01:53:49;6.95;;;6.28;;
74108;SDS011;62466;47.566;7.786;2023-02-28T01:56:19;7.30;;;6.68;;
74108;SDS011;62466;47.566;7.786;2023-02-28T01:58:49;6.90;;;6.32;;
74108;SDS011;62466;47.566;7.786;2023-02-28T02:01:16;7.93;;;6.53;;
74108;SDS011;62466;47.566;7.786;2023-02-28T02:03:49;8.85;;;6.63;;
74108;SDS011;62466;47.566;7.786;2023-02-28T02:06:24;7.93;;;7.13;;
74108;SDS011;62466;47.566;7.786;2023-02-28T02:08:53;6.97;;;6.30;;
74108;SDS011;62466;47.566;7.786;2023-02-28T02:11:20;6.88;;;6.28;;
74108;SDS011;62466;47.566;7.786;2023-02-28T02:14:03;6.88;;;5.88;;
74108;SDS011;62466;47.566;7.786;2023-02-28T02:22:10;8.13;;;6.93;;
74108;SDS011;62466;47.566;7.786;2023-02-28T02:27:24;7.78;;;6.78;;
74108;SDS011;62466;47.566;7.786;2023-02-28T02:38:06;8.55;;;6.65;;
74108;SDS011;62466;47.566;7.786;2023-02-28T02:40:43;8.38;;;6.93;;
74108;SDS011;62466;47.566;7.786;2023-02-28T02:43:17;8.52;;;6.35;;
74108;SDS011;62466;47.566;7.786;2023-02-28T02:45:47;7.05;;;6.45;;
74108;SDS011;62466;47.566;7.786;2023-02-28T02:48:16;6.72;;;5.95;;
74108;SDS011;62466;47.566;7.786;2023-02-28T02:50:45;6.93;;;6.22;;
74108;SDS011;62466;47.566;7.786;2023-02-28T02:53:17;6.88;;;6.18;;
74108;SDS011;62466;47.566;7.786;2023-02-28T02:55:44;9.75;;;6.20;;
74108;SDS011;62466;47.566;7.786;2023-02-28T02:58:15;7.68;;;6.88;;
74108;SDS011;62466;47.566;7.786;2023-02-28T03:00:43;7.22;;;6.13;;
74108;SDS011;62466;47.566;7.786;2023-02-28T03:03:11;6.90;;;5.90;;
74108;SDS011;62466;47.566;7.786;2023-02-28T03:05:47;8.07;;;7.15;;
74108;SDS011;62466;47.566;7.786;2023-02-28T03:08:14;7.63;;;6.90;;
74108;SDS011;62466;47.566;7.786;2023-02-28T03:10:43;7.20;;;6.25;;
74108;SDS011;62466;47.566;7.786;2023-02-28T03:19:10;7.85;;;6.50;;
74108;SDS011;62466;47.566;7.786;2023-02-28T03:21:54;7.07;;;6.43;;
74108;SDS011;62466;47.566;7.786;2023-02-28T03:24:37;6.47;;;5.88;;
74108;SDS011;62466;47.566;7.786;2023-02-28T03:27:16;7.32;;;6.57;;
74108;SDS011;62466;47.566;7.786;2023-02-28T03:29:46;7.80;;;7.05;;
74108;SDS011;62466;47.566;7.786;2023-02-28T03:34:52;9.20;;;6.90;;
74108;SDS011;62466;47.566;7.786;2023-02-28T03:37:31;7.05;;;6.15;;
74108;SDS011;62466;47.566;7.786;2023-02-28T03:40:02;7.10;;;6.43;;
74108;SDS011;62466;47.566;7.786;2023-02-28T03:42:34;8.90;;;7.28;;
74108;SDS011;62466;47.566;7.786;2023-02-28T03:45:21;8.30;;;6.47;;
74108;SDS011;62466;47.566;7.786;2023-02-28T03:47:53;8.63;;;6.53;;
74108;SDS011;62466;47.566;7.786;2023-02-28T03:50:23;8.48;;;7.15;;
74108;SDS011;62466;47.566;7.786;2023-02-28T03:55:27;7.07;;;6.38;;
74108;SDS011;62466;47.566;7.786;2023-02-28T04:01:02;7.15;;;6.53;;
74108;SDS011;62466;47.566;7.786;2023-02-28T04:03:36;7.13;;;6.43;;
74108;SDS011;62466;47.566;7.786;2023-02-28T04:06:03;11.18;;;7.32;;
74108;SDS011;62466;47.566;7.786;2023-02-28T04:08:29;7.80;;;7.00;;
74108;SDS011;62466;47.566;7.786;2023-02-28T04:13:48;10.70;;;7.32;;
74108;SDS011;62466;47.566;7.786;2023-02-28T04:16:14;7.70;;;6.43;;
74108;SDS011;62466;47.566;7.786;2023-02-28T04:18:41;8.10;;;7.28;;
74108;SDS011;62466;47.566;7.786;2023-02-28T04:21:10;8.93;;;6.88;;
74108;SDS011;62466;47.566;7.786;2023-02-28T04:23:36;7.15;;;6.50;;
74108;SDS011;62466;47.566;7.786;2023-02-28T04:26:02;8.00;;;6.95;;
74108;SDS011;62466;47.566;7.786;2023-02-28T04:28:29;7.13;;;6.35;;
74108;SDS011;62466;47.566;7.786;2023-02-28T04:30:56;6.75;;;6.10;;
74108;SDS011;62466;47.566;7.786;2023-02-28T04:33:22;7.03;;;6.32;;
74108;SDS011;62466;47.566;7.786;2023-02-28T04:35:57;8.82;;;6.68;;
74108;SDS011;62466;47.566;7.786;2023-02-28T04:38:34;7.38;;;6.68;;
74108;SDS011;62466;47.566;7.786;2023-02-28T04:41:03;7.13;;;6.40;;
74108;SDS011;62466;47.566;7.786;2023-02-28T04:43:29;6.72;;;5.95;;
74108;SDS011;62466;47.566;7.786;2023-02-28T04:45:56;8.38;;;6.88;;
74108;SDS011;62466;47.566;7.786;2023-02-28T04:48:27;7.18;;;6.47;;
74108;SDS011;62466;47.566;7.786;2023-02-28T04:50:53;6.90;;;6.20;;
74108;SDS011;62466;47.566;7.786;2023-02-28T04:53:19;7.43;;;6.18;;
74108;SDS011;62466;47.566;7.786;2023-02-28T04:55:47;7.10;;;6.22;;
74108;SDS011;62466;47.566;7.786;2023-02-28T04:58:13;6.85;;;6.22;;
74108;SDS011;62466;47.566;7.786;2023-02-28T05:00:39;7.63;;;6.70;;
74108;SDS011;62466;47.566;7.786;2023-02-28T05:03:05;8.65;;;6.43;;
74108;SDS011;62466;47.566;7.786;2023-02-28T05:05:31;7.15;;;6.45;;
74108;SDS011;62466;47.566;7.786;2023-02-28T05:07:56;7.63;;;6.65;;
74108;SDS011;62466;47.566;7.786;2023-02-28T05:10:22;7.00;;;6.43;;
74108;SDS011;62466;47.566;7.786;2023-02-28T05:12:48;7.38;;;6.50;;
74108;SDS011;62466;47.566;7.786;2023-02-28T05:15:14;6.93;;;6.30;;
74108;SDS011;62466;47.566;7.786;2023-02-28T05:17:42;9.80;;;7.22;;
74108;SDS011;62466;47.566;7.786;2023-02-28T05:20:09;6.88;;;6.18;;
74108;SDS011;62466;47.566;7.786;2023-02-28T05:22:41;7.60;;;6.70;;
74108;SDS011;62466;47.566;7.786;2023-02-28T05:25:16;8.00;;;6.72;;
74108;SDS011;62466;47.566;7.786;2023-02-28T05:27:43;9.25;;;6.80;;
74108;SDS011;62466;47.566;7.786;2023-02-28T05:30:09;6.80;;;6.20;;
74108;SDS011;62466;47.566;7.786;2023-02-28T05:32:36;9.85;;;7.13;;
74108;SDS011;62466;47.566;7.786;2023-02-28T05:35:03;7.38;;;6.63;;
74108;SDS011;62466;47.566;7.786;2023-02-28T05:40:15;7.57;;;6.22;;
74108;SDS011;62466;47.566;7.786;2023-02-28T05:42:41;7.38;;;6.13;;
74108;SDS011;62466;47.566;7.786;2023-02-28T05:45:07;11.00;;;7.35;;
74108;SDS011;62466;47.566;7.786;2023-02-28T05:47:34;7.45;;;6.75;;
74108;SDS011;62466;47.566;7.786;2023-02-28T05:50:00;7.68;;;6.88;;
74108;SDS011;62466;47.566;7.786;2023-02-28T05:52:27;7.60;;;6.03;;
74108;SDS011;62466;47.566;7.786;2023-02-28T05:54:53;8.45;;;6.53;;
74108;SDS011;62466;47.566;7.786;2023-02-28T05:57:19;9.30;;;7.13;;
74108;SDS011;62466;47.566;7.786;2023-02-28T05:59:45;7.05;;;6.35;;
74108;SDS011;62466;47.566;7.786;2023-02-28T06:02:11;7.38;;;6.53;;
74108;SDS011;62466;47.566;7.786;2023-02-28T06:04:38;6.43;;;5.93;;
74108;SDS011;62466;47.566;7.786;2023-02-28T06:07:03;9.18;;;6.22;;
74108;SDS011;62466;47.566;7.786;2023-02-28T06:09:29;7.20;;;6.38;;
74108;SDS011;62466;47.566;7.786;2023-02-28T06:11:57;8.38;;;6.90;;
74108;SDS011;62466;47.566;7.786;2023-02-28T06:14:23;11.48;;;6.70;;
74108;SDS011;62466;47.566;7.786;2023-02-28T06:16:49;7.70;;;6.53;;
74108;SDS011;62466;47.566;7.786;2023-02-28T06:19:14;7.82;;;6.40;;
74108;SDS011;62466;47.566;7.786;2023-02-28T06:21:40;7.82;;;6.35;;
74108;SDS011;62466;47.566;7.786;2023-02-28T06:24:06;7.60;;;6.90;;
74108;SDS011;62466;47.566;7.786;2023-02-28T06:26:32;7.35;;;6.57;;
74108;SDS011;62466;47.566;7.786;2023-02-28T06:28:57;7.15;;;6.45;;
74108;SDS011;62466;47.566;7.786;2023-02-28T06:31:23;9.18;;;6.68;;
74108;SDS011;62466;47.566;7.786;2023-02-28T06:33:50;6.90;;;6.20;;
74108;SDS011;62466;47.566;7.786;2023-02-28T06:36:16;8.07;;;7.32;;
74108;SDS011;62466;47.566;7.786;2023-02-28T06:38:42;8.85;;;7.20;;
74108;SDS011;62466;47.566;7.786;2023-02-28T06:41:08;7.85;;;7.03;;
74108;SDS011;62466;47.566;7.786;2023-02-28T06:43:39;9.85;;;6.68;;
74108;SDS011;62466;47.566;7.786;2023-02-28T06:46:06;9.15;;;7.35;;
74108;SDS011;62466;47.566;7.786;2023-02-28T06:48:33;8.48;;;7.05;;
74108;SDS011;62466;47.566;7.786;2023-02-28T06:51:03;7.82;;;6.82;;
74108;SDS011;62466;47.566;7.786;2023-02-28T06:53:34;10.68;;;7.20;;
74108;SDS011;62466;47.566;7.786;2023-02-28T06:56:03;8.95;;;6.93;;
74108;SDS011;62466;47.566;7.786;2023-02-28T06:58:28;7.95;;;7.07;;
74108;SDS011;62466;47.566;7.786;2023-02-28T07:00:54;11.07;;;7.72;;
74108;SDS011;62466;47.566;7.786;2023-02-28T07:03:19;9.55;;;7.18;;
74108;SDS011;62466;47.566;7.786;2023-02-28T07:05:45;10.50;;;8.30;;
74108;SDS011;62466;47.566;7.786;2023-02-28T07:08:10;10.23;;;7.57;;
74108;SDS011;62466;47.566;7.786;2023-02-28T07:10:39;10.00;;;7.28;;
74108;SDS011;62466;47.566;7.786;2023-02-28T07:13:06;9.25;;;7.82;;
74108;SDS011;62466;47.566;7.786;2023-02-28T07:15:32;8.85;;;7.75;;
74108;SDS011;62466;47.566;7.786;2023-02-28T07:17:58;9.88;;;7.28;;
74108;SDS011;62466;47.566;7.786;2023-02-28T07:20:24;9.07;;;7.25;;
74108;SDS011;62466;47.566;7.786;2023-02-28T07:22:50;8.60;;;7.60;;
74108;SDS011;62466;47.566;7.786;2023-02-28T07:25:27;8.57;;;7.68;;
74108;SDS011;62466;47.566;7.786;2023-02-28T07:27:54;7.82;;;7.03;;
74108;SDS011;62466;47.566;7.786;2023-02-28T07:30:19;8.23;;;7.18;;
74108;SDS011;62466;47.566;7.786;2023-02-28T07:32:45;7.85;;;6.80;;
74108;SDS011;62466;47.566;7.786;2023-02-28T07:35:11;9.77;;;7.63;;
74108;SDS011;62466;47.566;7.786;2023-02-28T07:37:36;8.93;;;7.93;;
74108;SDS011;62466;47.566;7.786;2023-02-28T07:40:05;8.30;;;7.45;;
74108;SDS011;62466;47.566;7.786;2023-02-28T07:42:36;10.85;;;7.43;;
74108;SDS011;62466;47.566;7.786;2023-02-28T07:45:03;11.68;;;8.48;;
74108;SDS011;62466;47.566;7.786;2023-02-28T07:47:29;10.80;;;8.00;;
74108;SDS011;62466;47.566;7.786;2023-02-28T07:49:55;11.23;;;7.30;;
74108;SDS011;62466;47.566;7.786;2023-02-28T07:52:21;9.20;;;6.85;;
74108;SDS011;62466;47.566;7.786;2023-02-28T07:54:48;11.13;;;7.07;;
74108;SDS011;62466;47.566;7.786;2023-02-28T07:57:14;9.32;;;7.25;;
74108;SDS011;62466;47.566;7.786;2023-02-28T07:59:40;8.13;;;7.32;;
74108;SDS011;62466;47.566;7.786;2023-02-28T08:02:05;13.75;;;8.00;;
74108;SDS011;62466;47.566;7.786;2023-02-28T08:04:31;8.70;;;7.28;;
74108;SDS011;62466;47.566;7.786;2023-02-28T08:06:57;10.98;;;7.32;;
74108;SDS011;62466;47.566;7.786;2023-02-28T08:09:23;10.98;;;7.65;;
74108;SDS011;62466;47.566;7.786;2023-02-28T08:11:49;7.97;;;7.20;;
74108;SDS011;62466;47.566;7.786;2023-02-28T08:14:14;8.57;;;6.93;;
74108;SDS011;62466;47.566;7.786;2023-02-28T08:16:40;7.90;;;7.07;;
74108;SDS011;62466;47.566;7.786;2023-02-28T08:19:05;9.98;;;7.53;;
74108;SDS011;62466;47.566;7.786;2023-02-28T08:21:31;11.30;;;8.23;;
74108;SDS011;62466;47.566;7.786;2023-02-28T08:23:58;8.15;;;7.25;;
74108;SDS011;62466;47.566;7.786;2023-02-28T08:26:23;8.15;;;7.03;;
74108;SDS011;62466;47.566;7.786;2023-02-28T08:28:48;9.15;;;7.80;;
74108;SDS011;62466;47.566;7.786;2023-02-28T08:31:15;9.48;;;7.72;;
74108;SDS011;62466;47.566;7.786;2023-02-28T08:33:41;10.90;;;7.57;;
74108;SDS011;62466;47.566;7.786;2023-02-28T08:36:07;7.80;;;6.97;;
74108;SDS011;62466;47.566;7.786;2023-02-28T08:38:34;7.65;;;6.95;;
74108;SDS011;62466;47.566;7.786;2023-02-28T08:41:01;8.30;;;7.43;;
74108;SDS011;62466;47.566;7.786;2023-02-28T08:43:28;9.45;;;7.30;;
74108;SDS011;62466;47.566;7.786;2023-02-28T08:45:54;8.70;;;7.85;;
74108;SDS011;62466;47.566;7.786;2023-02-28T08:48:22;9.80;;;7.32;;
74108;SDS011;62466;47.566;7.786;2023-02-28T08:51:02;10.93;;;7.75;;
74108;SDS011;62466;47.566;7.786;2023-02-28T08:53:37;8.05;;;7.35;;
74108;SDS011;62466;47.566;7.786;2023-02-28T08:56:08;9.05;;;7.30;;
74108;SDS011;62466;47.566;7.786;2023-02-28T08:58:35;8.57;;;7.50;;
74108;SDS011;62466;47.566;7.786;2023-02-28T09:01:10;9.35;;;7.18;;
74108;SDS011;62466;47.566;7.786;2023-02-28T09:03:39;8.77;;;7.32;;
74108;SDS011;62466;47.566;7.786;2023-02-28T09:06:06;8.50;;;6.93;;
74108;SDS011;62466;47.566;7.786;2023-02-28T09:08:32;8.73;;;6.97;;
74108;SDS011;62466;47.566;7.786;2023-02-28T09:10:58;7.55;;;6.85;;
74108;SDS011;62466;47.566;7.786;2023-02-28T09:13:27;11.82;;;7.50;;
74108;SDS011;62466;47.566;7.786;2023-02-28T09:15:53;9.15;;;7.22;;
74108;SDS011;62466;47.566;7.786;2023-02-28T09:18:19;7.80;;;7.03;;
74108;SDS011;62466;47.566;7.786;2023-02-28T09:20:45;8.07;;;7.28;;
74108;SDS011;62466;47.566;7.786;2023-02-28T09:23:11;8.90;;;7.28;;
74108;SDS011;62466;47.566;7.786;2023-02-28T09:25:37;9.65;;;8.05;;
74108;SDS011;62466;47.566;7.786;2023-02-28T09:28:03;8.20;;;7.40;;
74108;SDS011;62466;47.566;7.786;2023-02-28T09:30:29;7.80;;;6.70;;
74108;SDS011;62466;47.566;7.786;2023-02-28T09:32:55;8.75;;;7.85;;
74108;SDS011;62466;47.566;7.786;2023-02-28T09:35:22;7.80;;;6.97;;
74108;SDS011;62466;47.566;7.786;2023-02-28T09:37:51;8.38;;;7.28;;
74108;SDS011;62466;47.566;7.786;2023-02-28T09:40:18;8.88;;;7.05;;
74108;SDS011;62466;47.566;7.786;2023-02-28T09:42:45;9.07;;;7.53;;
74108;SDS011;62466;47.566;7.786;2023-02-28T09:48:02;7.10;;;6.30;;
74108;SDS011;62466;47.566;7.786;2023-02-28T09:50:31;9.77;;;6.50;;
74108;SDS011;62466;47.566;7.786;2023-02-28T09:53:01;8.93;;;6.80;;
74108;SDS011;62466;47.566;7.786;2023-02-28T09:55:33;7.93;;;7.10;;
74108;SDS011;62466;47.566;7.786;2023-02-28T09:58:00;7.40;;;6.35;;
74108;SDS011;62466;47.566;7.786;2023-02-28T10:03:04;9.20;;;7.38;;
74108;SDS011;62466;47.566;7.786;2023-02-28T10:05:38;9.13;;;7.05;;
74108;SDS011;62466;47.566;7.786;2023-02-28T10:08:17;7.70;;;6.20;;
74108;SDS011;62466;47.566;7.786;2023-02-28T10:11:06;9.73;;;7.18;;
74108;SDS011;62466;47.566;7.786;2023-02-28T10:13:53;7.22;;;6.55;;
74108;SDS011;62466;47.566;7.786;2023-02-28T10:16:40;8.45;;;6.97;;
74108;SDS011;62466;47.566;7.786;2023-02-28T10:19:16;10.82;;;7.43;;
74108;SDS011;62466;47.566;7.786;2023-02-28T10:21:50;9.43;;;7.70;;
74108;SDS011;62466;47.566;7.786;2023-02-28T10:24:29;8.38;;;7.57;;
74108;SDS011;62466;47.566;7.786;2023-02-28T10:27:06;8.77;;;7.20;;
74108;SDS011;62466;47.566;7.786;2023-02-28T10:29:39;7.78;;;6.70;;
74108;SDS011;62466;47.566;7.786;2023-02-28T10:32:06;8.73;;;7.10;;
74108;SDS011;62466;47.566;7.786;2023-02-28T10:34:31;8.25;;;6.93;;
74108;SDS011;62466;47.566;7.786;2023-02-28T10:36:57;8.70;;;7.20;;
74108;SDS011;62466;47.566;7.786;2023-02-28T10:42:02;8.77;;;7.22;;
74108;SDS011;62466;47.566;7.786;2023-02-28T10:44:29;8.65;;;6.93;;
74108;SDS011;62466;47.566;7.786;2023-02-28T10:46:54;7.97;;;7.15;;
74108;SDS011;62466;47.566;7.786;2023-02-28T10:49:24;11.38;;;6.90;;
74108;SDS011;62466;47.566;7.786;2023-02-28T10:51:53;9.25;;;7.07;;
74108;SDS011;62466;47.566;7.786;2023-02-28T10:57:05;10.38;;;8.25;;
74108;SDS011;62466;47.566;7.786;2023-02-28T11:00:07;8.05;;;7.28;;
74108;SDS011;62466;47.566;7.786;2023-02-28T11:02:39;8.43;;;6.88;;
74108;SDS011;62466;47.566;7.786;2023-02-28T11:05:27;10.13;;;7.65;;
74108;SDS011;62466;47.566;7.786;2023-02-28T11:08:13;9.30;;;7.35;;
74108;SDS011;62466;47.566;7.786;2023-02-28T11:10:44;11.88;;;7.35;;
74108;SDS011;62466;47.566;7.786;2023-02-28T11:13:17;8.20;;;6.77;;
74108;SDS011;62466;47.566;7.786;2023-02-28T11:15:52;8.32;;;6.93;;
74108;SDS011;62466;47.566;7.786;2023-02-28T11:18:24;9.15;;;6.82;;
74108;SDS011;62466;47.566;7.786;2023-02-28T11:20:54;8.15;;;6.65;;
74108;SDS011;62466;47.566;7.786;2023-02-28T11:23:21;8.65;;;6.30;;
74108;SDS011;62466;47.566;7.786;2023-02-28T11:25:51;7.13;;;6.43;;
74108;SDS011;62466;47.566;7.786;2023-02-28T11:28:25;7.88;;;6.57;;
74108;SDS011;62466;47.566;7.786;2023-02-28T11:33:46;9.63;;;6.95;;
74108;SDS011;62466;47.566;7.786;2023-02-28T11:36:31;9.25;;;7.75;;
74108;SDS011;62466;47.566;7.786;2023-02-28T11:39:03;7.13;;;6.43;;
74108;SDS011;62466;47.566;7.786;2023-02-28T11:44:43;7.28;;;6.57;;
74108;SDS011;62466;47.566;7.786;2023-02-28T11:47:20;10.73;;;7.20;;
74108;SDS011;62466;47.566;7.786;2023-02-28T12:00:37;9.43;;;7.03;;
74108;SDS011;62466;47.566;7.786;2023-02-28T12:03:18;11.02;;;8.38;;
74108;SDS011;62466;47.566;7.786;2023-02-28T12:20:11;7.72;;;6.35;;
74108;SDS011;62466;47.566;7.786;2023-02-28T12:28:14;9.98;;;7.40;;
74108;SDS011;62466;47.566;7.786;2023-02-28T12:30:49;10.43;;;7.72;;
74108;SDS011;62466;47.566;7.786;2023-02-28T12:33:24;9.93;;;6.70;;
74108;SDS011;62466;47.566;7.786;2023-02-28T12:35:54;9.27;;;7.18;;
74108;SDS011;62466;47.566;7.786;2023-02-28T12:38:25;9.07;;;7.18;;
74108;SDS011;62466;47.566;7.786;2023-02-28T12:43:20;8.52;;;6.97;;
74108;SDS011;62466;47.566;7.786;2023-02-28T12:45:52;9.40;;;7.18;;
74108;SDS011;62466;47.566;7.786;2023-02-28T12:48:28;9.77;;;8.07;;
74108;SDS011;62466;47.566;7.786;2023-02-28T12:50:55;8.52;;;7.00;;
74108;SDS011;62466;47.566;7.786;2023-02-28T12:58:47;12.50;;;8.45;;
74108;SDS011;62466;47.566;7.786;2023-02-28T13:09:31;9.68;;;7.05;;
74108;SDS011;62466;47.566;7.786;2023-02-28T13:11:57;8.73;;;7.00;;
74108;SDS011;62466;47.566;7.786;2023-02-28T13:14:28;8.32;;;7.05;;
74108;SDS011;62466;47.566;7.786;2023-02-28T13:19:37;8.07;;;6.15;;
74108;SDS011;62466;47.566;7.786;2023-02-28T13:22:04;7.53;;;6.03;;
74108;SDS011;62466;47.566;7.786;2023-02-28T13:29:28;7.72;;;6.30;;
74108;SDS011;62466;47.566;7.786;2023-02-28T13:34:34;9.65;;;7.18;;
74108;SDS011;62466;47.566;7.786;2023-02-28T13:47:27;9.30;;;7.30;;
74108;SDS011;62466;47.566;7.786;2023-02-28T13:50:13;9.18;;;7.22;;
74108;SDS011;62466;47.566;7.786;2023-02-28T14:01:11;10.73;;;7.82;;
74108;SDS011;62466;47.566;7.786;2023-02-28T14:03:44;9.93;;;7.00;;
74108;SDS011;62466;47.566;7.786;2023-02-28T14:11:40;12.95;;;8.93;;
74108;SDS011;62466;47.566;7.786;2023-02-28T14:14:08;10.13;;;7.85;;
74108;SDS011;62466;47.566;7.786;2023-02-28T14:16:39;10.27;;;7.43;;
74108;SDS011;62466;47.566;7.786;2023-02-28T14:21:38;9.85;;;7.35;;
74108;SDS011;62466;47.566;7.786;2023-02-28T14:27:00;14.02;;;7.85;;
74108;SDS011;62466;47.566;7.786;2023-02-28T14:32:25;11.65;;;8.90;;
74108;SDS011;62466;47.566;7.786;2023-02-28T14:37:42;9.93;;;7.38;;
74108;SDS011;62466;47.566;7.786;2023-02-28T14:40:12;11.23;;;8.95;;
74108;SDS011;62466;47.566;7.786;2023-02-28T14:42:45;13.30;;;9.35;;
74108;SDS011;62466;47.566;7.786;2023-02-28T14:45:19;9.55;;;8.18;;
74108;SDS011;62466;47.566;7.786;2023-02-28T14:47:45;10.38;;;8.60;;
74108;SDS011;62466;47.566;7.786;2023-02-28T14:50:18;10.77;;;7.82;;
74108;SDS011;62466;47.566;7.786;2023-02-28T14:52:45;10.65;;;9.38;;
74108;SDS011;62466;47.566;7.786;2023-02-28T14:55:15;12.15;;;8.68;;
74108;SDS011;62466;47.566;7.786;2023-02-28T14:57:53;14.05;;;9.02;;
74108;SDS011;62466;47.566;7.786;2023-02-28T15:00:29;12.90;;;9.07;;
74108;SDS011;62466;47.566;7.786;2023-02-28T15:02:57;14.38;;;9.05;;
74108;SDS011;62466;47.566;7.786;2023-02-28T15:05:28;10.23;;;8.15;;
74108;SDS011;62466;47.566;7.786;2023-02-28T15:08:11;14.27;;;9.98;;
74108;SDS011;62466;47.566;7.786;2023-02-28T15:11:01;10.88;;;8.25;;
74108;SDS011;62466;47.566;7.786;2023-02-28T15:13:33;11.50;;;8.95;;
74108;SDS011;62466;47.566;7.786;2023-02-28T15:19:06;12.45;;;8.57;;
74108;SDS011;62466;47.566;7.786;2023-02-28T15:21:38;13.05;;;8.38;;
74108;SDS011;62466;47.566;7.786;2023-02-28T15:24:10;15.88;;;9.55;;
74108;SDS011;62466;47.566;7.786;2023-02-28T15:26:42;12.75;;;8.55;;
74108;SDS011;62466;47.566;7.786;2023-02-28T15:29:13;13.15;;;9.02;;
74108;SDS011;62466;47.566;7.786;2023-02-28T15:31:43;11.55;;;8.55;;
74108;SDS011;62466;47.566;7.786;2023-02-28T15:34:21;14.80;;;9.85;;
74108;SDS011;62466;47.566;7.786;2023-02-28T15:46:01;14.75;;;9.63;;
74108;SDS011;62466;47.566;7.786;2023-02-28T15:48:37;14.95;;;10.07;;
74108;SDS011;62466;47.566;7.786;2023-02-28T15:53:38;11.68;;;9.10;;
74108;SDS011;62466;47.566;7.786;2023-02-28T15:59:25;11.65;;;8.65;;
74108;SDS011;62466;47.566;7.786;2023-02-28T16:02:12;14.65;;;9.20;;
74108;SDS011;62466;47.566;7.786;2023-02-28T16:07:33;13.38;;;9.07;;
74108;SDS011;62466;47.566;7.786;2023-02-28T16:09:59;14.27;;;10.32;;
74108;SDS011;62466;47.566;7.786;2023-02-28T16:12:29;14.05;;;10.32;;
74108;SDS011;62466;47.566;7.786;2023-02-28T16:14:57;17.50;;;10.98;;
74108;SDS011;62466;47.566;7.786;2023-02-28T16:17:25;15.05;;;9.65;;
74108;SDS011;62466;47.566;7.786;2023-02-28T16:19:52;20.30;;;11.40;;
74108;SDS011;62466;47.566;7.786;2023-02-28T16:22:18;12.93;;;9.32;;
74108;SDS011;62466;47.566;7.786;2023-02-28T16:24:43;13.52;;;10.57;;
74108;SDS011;62466;47.566;7.786;2023-02-28T16:27:14;12.85;;;9.82;;
74108;SDS011;62466;47.566;7.786;2023-02-28T16:29:41;13.30;;;10.13;;
74108;SDS011;62466;47.566;7.786;2023-02-28T16:32:06;15.40;;;9.52;;
74108;SDS011;62466;47.566;7.786;2023-02-28T16:34:32;13.73;;;10.07;;
74108;SDS011;62466;47.566;7.786;2023-02-28T16:36:58;14.30;;;10.30;;
74108;SDS011;62466;47.566;7.786;2023-02-28T16:39:23;17.67;;;11.20;;
74108;SDS011;62466;47.566;7.786;2023-02-28T16:41:49;13.70;;;10.18;;
74108;SDS011;62466;47.566;7.786;2023-02-28T16:46:54;15.15;;;10.32;;
74108;SDS011;62466;47.566;7.786;2023-02-28T16:49:20;13.88;;;10.35;;
74108;SDS011;62466;47.566;7.786;2023-02-28T16:51:46;13.35;;;10.73;;
74108;SDS011;62466;47.566;7.786;2023-02-28T16:54:11;13.52;;;10.38;;
74108;SDS011;62466;47.566;7.786;2023-02-28T16:56:37;13.18;;;10.43;;
74108;SDS011;62466;47.566;7.786;2023-02-28T16:59:05;15.77;;;10.65;;
74108;SDS011;62466;47.566;7.786;2023-02-28T17:01:30;15.75;;;10.52;;
74108;SDS011;62466;47.566;7.786;2023-02-28T17:03:56;15.23;;;10.35;;
74108;SDS011;62466;47.566;7.786;2023-02-28T17:06:23;14.35;;;10.20;;
74108;SDS011;62466;47.566;7.786;2023-02-28T17:08:51;15.40;;;10.88;;
74108;SDS011;62466;47.566;7.786;2023-02-28T17:11:17;18.30;;;11.85;;
74108;SDS011;62466;47.566;7.786;2023-02-28T17:13:43;18.48;;;10.85;;
74108;SDS011;62466;47.566;7.786;2023-02-28T17:16:23;13.18;;;10.48;;
74108;SDS011;62466;47.566;7.786;2023-02-28T17:18:51;17.58;;;11.20;;
74108;SDS011;62466;47.566;7.786;2023-02-28T17:21:18;13.77;;;10.38;;
74108;SDS011;62466;47.566;7.786;2023-02-28T17:23:43;12.18;;;9.70;;
74108;SDS011;62466;47.566;7.786;2023-02-28T17:26:11;13.50;;;11.18;;
74108;SDS011;62466;47.566;7.786;2023-02-28T17:28:38;16.55;;;11.02;;
74108;SDS011;62466;47.566;7.786;2023-02-28T17:31:04;20.90;;;11.90;;
74108;SDS011;62466;47.566;7.786;2023-02-28T17:33:29;19.73;;;11.48;;
74108;SDS011;62466;47.566;7.786;2023-02-28T17:35:55;15.30;;;10.25;;
74108;SDS011;62466;47.566;7.786;2023-02-28T17:38:20;17.98;;;11.00;;
74108;SDS011;62466;47.566;7.786;2023-02-28T17:40:48;15.13;;;10.95;;
74108;SDS011;62466;47.566;7.786;2023-02-28T17:43:13;14.75;;;10.15;;
74108;SDS011;62466;47.566;7.786;2023-02-28T17:45:40;15.25;;;11.13;;